TFFR/PTP METAR and TAF weather

Enter ICAO airport designator
Station Type Date Time Source
TFFR METAR 2021/02/25 01:30 UTC NOAA

TFFR 250130Z AUTO 09006KT CAVOK 23/18 Q1018


Station Type Date Time Source
TFFR Decoded METAR 2021/02/25 01:30 UTC NOAA

Le Raizet, Guadeloupe, Guadeloupe (TFFR) 16-16N 061-31W 11M
Feb 24, 2021 - 08:30 PM EST / 2021.02.25 0130 UTC
Wind: from the E (090 degrees) at 7 MPH (6 KT):0
Visibility: greater than 7 mile(s):0
Temperature: 73 F (23 C)
Dew Point: 64 F (18 C)
Relative Humidity: 73%
Pressure (altimeter): 30.06 in. Hg (1018 hPa)
ob: TFFR 250130Z AUTO 09006KT CAVOK 23/18 Q1018
cycle: 1

Station Type Date Time Source
TFFR TAF 2021/02/24 22:56 UTC NOAA

TAF TFFR 242246Z 2422/2518 CNL

Example: see airport list